sensor_id;sensor_type;location;lat;lon;timestamp;pressure;altitude;pressure_sealevel;temperature;humidity
48888;BME280;42598;53.802;-1.632;2023-02-16T00:00:13;100911.70;;;6.28;76.92
48888;BME280;42598;53.802;-1.632;2023-02-16T00:02:42;100912.26;;;5.58;80.25
48888;BME280;42598;53.802;-1.632;2023-02-16T00:05:22;100912.43;;;6.16;78.36
48888;BME280;42598;53.802;-1.632;2023-02-16T00:07:50;100913.76;;;5.82;79.07
48888;BME280;42598;53.802;-1.632;2023-02-16T00:10:17;100922.47;;;5.49;81.49
48888;BME280;42598;53.802;-1.632;2023-02-16T00:12:45;100918.30;;;5.94;80.83
48888;BME280;42598;53.802;-1.632;2023-02-16T00:15:17;100914.26;;;5.45;83.28
48888;BME280;42598;53.802;-1.632;2023-02-16T00:17:45;100912.24;;;5.51;84.27
48888;BME280;42598;53.802;-1.632;2023-02-16T00:20:18;100913.65;;;5.59;82.20
48888;BME280;42598;53.802;-1.632;2023-02-16T00:22:45;100906.58;;;5.64;81.14
48888;BME280;42598;53.802;-1.632;2023-02-16T00:25:12;100901.73;;;6.94;76.89
48888;BME280;42598;53.802;-1.632;2023-02-16T00:27:39;100900.92;;;7.15;75.92
48888;BME280;42598;53.802;-1.632;2023-02-16T00:30:13;100904.37;;;7.17;73.52
48888;BME280;42598;53.802;-1.632;2023-02-16T00:32:40;100900.52;;;7.86;69.53
48888;BME280;42598;53.802;-1.632;2023-02-16T00:35:13;100895.26;;;7.95;69.48
48888;BME280;42598;53.802;-1.632;2023-02-16T00:37:40;100894.53;;;7.94;69.89
48888;BME280;42598;53.802;-1.632;2023-02-16T00:40:08;100891.16;;;7.44;68.85
48888;BME280;42598;53.802;-1.632;2023-02-16T00:42:36;100889.17;;;8.81;64.70
48888;BME280;42598;53.802;-1.632;2023-02-16T00:45:05;100888.56;;;8.54;64.82
48888;BME280;42598;53.802;-1.632;2023-02-16T00:47:41;100882.88;;;9.18;63.41
48888;BME280;42598;53.802;-1.632;2023-02-16T00:50:16;100884.48;;;9.80;61.58
48888;BME280;42598;53.802;-1.632;2023-02-16T00:52:44;100883.04;;;8.71;62.93
48888;BME280;42598;53.802;-1.632;2023-02-16T00:55:15;100882.60;;;9.09;62.28
48888;BME280;42598;53.802;-1.632;2023-02-16T00:57:44;100879.35;;;9.01;63.25
48888;BME280;42598;53.802;-1.632;2023-02-16T01:00:17;100876.33;;;9.86;60.83
48888;BME280;42598;53.802;-1.632;2023-02-16T01:02:48;100869.65;;;8.68;61.78
48888;BME280;42598;53.802;-1.632;2023-02-16T01:05:16;100862.76;;;9.35;61.19
48888;BME280;42598;53.802;-1.632;2023-02-16T01:07:44;100859.26;;;9.94;59.59
48888;BME280;42598;53.802;-1.632;2023-02-16T01:10:11;100855.74;;;9.61;60.65
48888;BME280;42598;53.802;-1.632;2023-02-16T01:12:39;100850.97;;;8.42;62.56
48888;BME280;42598;53.802;-1.632;2023-02-16T01:15:10;100844.18;;;9.06;62.02
48888;BME280;42598;53.802;-1.632;2023-02-16T01:17:39;100846.83;;;9.66;59.90
48888;BME280;42598;53.802;-1.632;2023-02-16T01:20:14;100836.22;;;9.57;59.88
48888;BME280;42598;53.802;-1.632;2023-02-16T01:22:42;100835.24;;;8.81;62.29
48888;BME280;42598;53.802;-1.632;2023-02-16T01:25:09;100834.11;;;9.30;59.97
48888;BME280;42598;53.802;-1.632;2023-02-16T01:27:37;100842.35;;;10.04;58.71
48888;BME280;42598;53.802;-1.632;2023-02-16T01:30:10;100851.38;;;9.63;58.80
48888;BME280;42598;53.802;-1.632;2023-02-16T01:32:39;100850.81;;;9.49;58.84
48888;BME280;42598;53.802;-1.632;2023-02-16T01:35:06;100849.52;;;9.28;59.56
48888;BME280;42598;53.802;-1.632;2023-02-16T01:37:33;100849.89;;;8.92;61.58
48888;BME280;42598;53.802;-1.632;2023-02-16T01:40:00;100845.36;;;9.35;60.45
48888;BME280;42598;53.802;-1.632;2023-02-16T01:42:33;100847.50;;;8.29;64.08
48888;BME280;42598;53.802;-1.632;2023-02-16T01:45:07;100844.62;;;8.37;64.18
48888;BME280;42598;53.802;-1.632;2023-02-16T01:47:38;100842.48;;;8.77;63.46
48888;BME280;42598;53.802;-1.632;2023-02-16T01:50:15;100834.96;;;9.24;62.35
48888;BME280;42598;53.802;-1.632;2023-02-16T01:52:48;100832.72;;;9.34;61.53
48888;BME280;42598;53.802;-1.632;2023-02-16T01:55:20;100832.85;;;9.04;63.15
48888;BME280;42598;53.802;-1.632;2023-02-16T01:57:55;100821.26;;;10.26;58.99
48888;BME280;42598;53.802;-1.632;2023-02-16T02:00:28;100815.25;;;9.29;61.54
48888;BME280;42598;53.802;-1.632;2023-02-16T02:02:57;100809.41;;;9.09;63.32
48888;BME280;42598;53.802;-1.632;2023-02-16T02:05:27;100807.43;;;7.29;68.20
48888;BME280;42598;53.802;-1.632;2023-02-16T02:07:58;100810.12;;;6.62;72.86
48888;BME280;42598;53.802;-1.632;2023-02-16T02:10:35;100806.12;;;6.38;73.00
48888;BME280;42598;53.802;-1.632;2023-02-16T02:13:09;100798.17;;;6.43;73.73
48888;BME280;42598;53.802;-1.632;2023-02-16T02:15:40;100787.37;;;8.85;67.51
48888;BME280;42598;53.802;-1.632;2023-02-16T02:18:07;100781.14;;;9.31;63.73
48888;BME280;42598;53.802;-1.632;2023-02-16T02:20:44;100784.32;;;9.32;62.77
48888;BME280;42598;53.802;-1.632;2023-02-16T02:23:22;100782.23;;;10.01;61.01
48888;BME280;42598;53.802;-1.632;2023-02-16T02:26:47;100784.06;;;10.40;59.16
48888;BME280;42598;53.802;-1.632;2023-02-16T02:29:28;100786.91;;;6.56;73.39
48888;BME280;42598;53.802;-1.632;2023-02-16T02:32:08;100777.62;;;7.73;71.66
48888;BME280;42598;53.802;-1.632;2023-02-16T02:34:47;100769.88;;;9.24;64.15
48888;BME280;42598;53.802;-1.632;2023-02-16T02:37:27;100762.14;;;8.30;65.37
48888;BME280;42598;53.802;-1.632;2023-02-16T02:40:07;100760.89;;;8.44;66.13
48888;BME280;42598;53.802;-1.632;2023-02-16T02:42:42;100757.49;;;8.84;63.51
48888;BME280;42598;53.802;-1.632;2023-02-16T02:45:17;100753.54;;;9.83;61.09
48888;BME280;42598;53.802;-1.632;2023-02-16T02:47:47;100753.77;;;8.52;64.24
48888;BME280;42598;53.802;-1.632;2023-02-16T02:50:37;100752.56;;;7.87;68.64
48888;BME280;42598;53.802;-1.632;2023-02-16T02:53:12;100752.84;;;8.46;65.37
48888;BME280;42598;53.802;-1.632;2023-02-16T02:55:45;100755.27;;;8.51;65.47
48888;BME280;42598;53.802;-1.632;2023-02-16T02:58:14;100751.22;;;9.07;63.34
48888;BME280;42598;53.802;-1.632;2023-02-16T03:00:44;100751.55;;;5.40;73.94
48888;BME280;42598;53.802;-1.632;2023-02-16T03:03:16;100752.46;;;7.35;70.15
48888;BME280;42598;53.802;-1.632;2023-02-16T03:05:46;100740.15;;;7.79;66.18
48888;BME280;42598;53.802;-1.632;2023-02-16T03:08:19;100731.92;;;8.04;66.83
48888;BME280;42598;53.802;-1.632;2023-02-16T03:10:51;100732.58;;;8.94;62.89
48888;BME280;42598;53.802;-1.632;2023-02-16T03:13:21;100724.63;;;7.58;65.18
48888;BME280;42598;53.802;-1.632;2023-02-16T03:15:50;100726.40;;;7.91;66.46
48888;BME280;42598;53.802;-1.632;2023-02-16T03:18:19;100727.01;;;8.87;63.82
48888;BME280;42598;53.802;-1.632;2023-02-16T03:20:46;100721.40;;;8.69;63.83
48888;BME280;42598;53.802;-1.632;2023-02-16T03:23:13;100719.29;;;8.92;62.33
48888;BME280;42598;53.802;-1.632;2023-02-16T03:25:41;100705.44;;;7.86;66.15
48888;BME280;42598;53.802;-1.632;2023-02-16T03:28:11;100700.02;;;8.75;63.44
48888;BME280;42598;53.802;-1.632;2023-02-16T03:30:39;100699.62;;;8.80;63.13
48888;BME280;42598;53.802;-1.632;2023-02-16T03:33:07;100696.95;;;8.77;64.51
48888;BME280;42598;53.802;-1.632;2023-02-16T03:35:35;100689.26;;;7.86;66.11
48888;BME280;42598;53.802;-1.632;2023-02-16T03:38:02;100689.81;;;7.51;69.57
48888;BME280;42598;53.802;-1.632;2023-02-16T03:40:29;100693.37;;;8.42;67.34
48888;BME280;42598;53.802;-1.632;2023-02-16T03:43:00;100690.97;;;8.50;66.90
48888;BME280;42598;53.802;-1.632;2023-02-16T03:45:29;100686.68;;;8.81;68.94
48888;BME280;42598;53.802;-1.632;2023-02-16T03:47:57;100679.68;;;7.79;70.15
48888;BME280;42598;53.802;-1.632;2023-02-16T03:50:24;100679.60;;;8.19;72.64
48888;BME280;42598;53.802;-1.632;2023-02-16T03:52:51;100682.38;;;6.91;76.80
48888;BME280;42598;53.802;-1.632;2023-02-16T03:55:19;100673.55;;;7.65;76.68
48888;BME280;42598;53.802;-1.632;2023-02-16T03:57:45;100670.18;;;6.52;79.97
48888;BME280;42598;53.802;-1.632;2023-02-16T04:00:13;100666.29;;;7.39;79.06
48888;BME280;42598;53.802;-1.632;2023-02-16T04:02:40;100663.48;;;7.61;76.92
48888;BME280;42598;53.802;-1.632;2023-02-16T04:05:07;100660.20;;;6.62;81.31
48888;BME280;42598;53.802;-1.632;2023-02-16T04:07:34;100656.05;;;7.50;77.85
48888;BME280;42598;53.802;-1.632;2023-02-16T04:10:01;100655.90;;;8.28;75.26
48888;BME280;42598;53.802;-1.632;2023-02-16T04:12:28;100651.95;;;7.77;76.51
48888;BME280;42598;53.802;-1.632;2023-02-16T04:14:55;100645.96;;;7.71;77.20
48888;BME280;42598;53.802;-1.632;2023-02-16T04:17:22;100646.13;;;7.00;79.94
48888;BME280;42598;53.802;-1.632;2023-02-16T04:19:50;100649.54;;;7.95;76.99
48888;BME280;42598;53.802;-1.632;2023-02-16T04:22:16;100648.02;;;7.56;75.48
48888;BME280;42598;53.802;-1.632;2023-02-16T04:24:43;100641.05;;;6.90;77.29
48888;BME280;42598;53.802;-1.632;2023-02-16T04:27:10;100636.11;;;8.86;71.60
48888;BME280;42598;53.802;-1.632;2023-02-16T04:29:37;100638.96;;;9.28;69.51
48888;BME280;42598;53.802;-1.632;2023-02-16T04:32:04;100642.32;;;9.33;69.17
48888;BME280;42598;53.802;-1.632;2023-02-16T04:34:31;100643.40;;;9.62;67.59
48888;BME280;42598;53.802;-1.632;2023-02-16T04:36:58;100645.67;;;9.91;65.45
48888;BME280;42598;53.802;-1.632;2023-02-16T04:39:25;100633.25;;;9.71;65.78
48888;BME280;42598;53.802;-1.632;2023-02-16T04:41:52;100625.17;;;9.13;67.99
48888;BME280;42598;53.802;-1.632;2023-02-16T04:44:19;100619.74;;;9.82;66.62
48888;BME280;42598;53.802;-1.632;2023-02-16T04:46:47;100617.14;;;9.57;66.78
48888;BME280;42598;53.802;-1.632;2023-02-16T04:49:14;100617.53;;;9.69;66.75
48888;BME280;42598;53.802;-1.632;2023-02-16T04:51:41;100614.52;;;9.90;65.18
48888;BME280;42598;53.802;-1.632;2023-02-16T04:54:09;100610.98;;;9.80;65.99
48888;BME280;42598;53.802;-1.632;2023-02-16T04:56:35;100606.81;;;10.43;64.48
48888;BME280;42598;53.802;-1.632;2023-02-16T04:59:02;100600.64;;;9.64;65.48
48888;BME280;42598;53.802;-1.632;2023-02-16T05:01:30;100592.11;;;9.20;67.12
48888;BME280;42598;53.802;-1.632;2023-02-16T05:03:57;100588.86;;;9.30;67.00
48888;BME280;42598;53.802;-1.632;2023-02-16T05:06:24;100589.61;;;9.74;65.66
48888;BME280;42598;53.802;-1.632;2023-02-16T05:08:51;100588.28;;;10.09;65.27
48888;BME280;42598;53.802;-1.632;2023-02-16T05:11:18;100593.76;;;9.27;66.57
48888;BME280;42598;53.802;-1.632;2023-02-16T05:13:45;100597.77;;;9.55;66.37
48888;BME280;42598;53.802;-1.632;2023-02-16T05:16:11;100587.16;;;8.39;70.02
48888;BME280;42598;53.802;-1.632;2023-02-16T05:18:39;100589.48;;;8.38;70.29
48888;BME280;42598;53.802;-1.632;2023-02-16T05:21:06;100583.17;;;8.51;70.51
48888;BME280;42598;53.802;-1.632;2023-02-16T05:23:33;100574.07;;;7.82;71.02
48888;BME280;42598;53.802;-1.632;2023-02-16T05:25:59;100572.86;;;7.64;74.00
48888;BME280;42598;53.802;-1.632;2023-02-16T05:28:26;100572.12;;;7.29;78.63
48888;BME280;42598;53.802;-1.632;2023-02-16T05:30:53;100570.43;;;8.19;75.01
48888;BME280;42598;53.802;-1.632;2023-02-16T05:33:20;100566.92;;;8.44;72.18
48888;BME280;42598;53.802;-1.632;2023-02-16T05:35:47;100577.18;;;8.75;71.44
48888;BME280;42598;53.802;-1.632;2023-02-16T05:38:13;100579.65;;;9.34;70.36
48888;BME280;42598;53.802;-1.632;2023-02-16T05:40:40;100574.49;;;8.41;71.45
48888;BME280;42598;53.802;-1.632;2023-02-16T05:43:07;100569.15;;;8.53;72.44
48888;BME280;42598;53.802;-1.632;2023-02-16T05:45:34;100565.25;;;8.20;72.74
48888;BME280;42598;53.802;-1.632;2023-02-16T05:48:01;100564.36;;;9.09;70.62
48888;BME280;42598;53.802;-1.632;2023-02-16T05:50:27;100554.05;;;7.96;74.47
48888;BME280;42598;53.802;-1.632;2023-02-16T05:52:54;100553.02;;;8.77;74.78
48888;BME280;42598;53.802;-1.632;2023-02-16T05:55:21;100554.33;;;8.07;75.42
48888;BME280;42598;53.802;-1.632;2023-02-16T05:57:48;100557.34;;;6.64;80.45
48888;BME280;42598;53.802;-1.632;2023-02-16T06:00:16;100553.58;;;8.27;79.91
48888;BME280;42598;53.802;-1.632;2023-02-16T06:02:43;100558.60;;;7.40;81.47
48888;BME280;42598;53.802;-1.632;2023-02-16T06:05:10;100558.42;;;8.07;80.76
48888;BME280;42598;53.802;-1.632;2023-02-16T06:07:37;100561.81;;;6.61;88.30
48888;BME280;42598;53.802;-1.632;2023-02-16T06:10:05;100560.86;;;6.53;87.77
48888;BME280;42598;53.802;-1.632;2023-02-16T06:12:33;100561.58;;;7.20;85.00
48888;BME280;42598;53.802;-1.632;2023-02-16T06:15:00;100558.57;;;7.80;82.82
48888;BME280;42598;53.802;-1.632;2023-02-16T06:17:27;100556.01;;;8.30;79.06
48888;BME280;42598;53.802;-1.632;2023-02-16T06:19:55;100549.56;;;8.68;76.51
48888;BME280;42598;53.802;-1.632;2023-02-16T06:22:22;100549.24;;;7.98;78.88
48888;BME280;42598;53.802;-1.632;2023-02-16T06:24:49;100538.45;;;8.16;77.37
48888;BME280;42598;53.802;-1.632;2023-02-16T06:27:16;100543.73;;;8.36;76.82
48888;BME280;42598;53.802;-1.632;2023-02-16T06:29:43;100543.81;;;8.17;76.27
48888;BME280;42598;53.802;-1.632;2023-02-16T06:32:10;100547.66;;;7.35;79.64
48888;BME280;42598;53.802;-1.632;2023-02-16T06:34:37;100542.96;;;9.54;73.68
48888;BME280;42598;53.802;-1.632;2023-02-16T06:37:05;100545.69;;;9.60;70.41
48888;BME280;42598;53.802;-1.632;2023-02-16T06:39:31;100548.57;;;9.13;72.31
48888;BME280;42598;53.802;-1.632;2023-02-16T06:41:59;100557.03;;;8.74;75.72
48888;BME280;42598;53.802;-1.632;2023-02-16T06:44:26;100556.28;;;8.10;76.34
48888;BME280;42598;53.802;-1.632;2023-02-16T06:46:52;100555.56;;;7.65;76.46
48888;BME280;42598;53.802;-1.632;2023-02-16T06:49:20;100552.66;;;8.85;72.21
48888;BME280;42598;53.802;-1.632;2023-02-16T06:51:48;100558.90;;;9.19;70.99
48888;BME280;42598;53.802;-1.632;2023-02-16T06:54:16;100556.41;;;9.19;69.99
48888;BME280;42598;53.802;-1.632;2023-02-16T06:56:43;100556.99;;;8.88;70.56
48888;BME280;42598;53.802;-1.632;2023-02-16T06:59:11;100556.02;;;9.36;69.04
48888;BME280;42598;53.802;-1.632;2023-02-16T07:01:38;100550.32;;;9.60;69.85
48888;BME280;42598;53.802;-1.632;2023-02-16T07:04:05;100546.66;;;9.39;69.31
48888;BME280;42598;53.802;-1.632;2023-02-16T07:06:32;100547.19;;;9.71;68.18
48888;BME280;42598;53.802;-1.632;2023-02-16T07:08:59;100544.27;;;9.30;68.45
48888;BME280;42598;53.802;-1.632;2023-02-16T07:11:27;100544.25;;;10.03;67.85
48888;BME280;42598;53.802;-1.632;2023-02-16T07:13:54;100541.24;;;9.63;68.73
48888;BME280;42598;53.802;-1.632;2023-02-16T07:16:22;100538.89;;;9.80;67.65
48888;BME280;42598;53.802;-1.632;2023-02-16T07:18:48;100530.28;;;9.47;67.63
48888;BME280;42598;53.802;-1.632;2023-02-16T07:21:15;100528.09;;;8.89;69.81
48888;BME280;42598;53.802;-1.632;2023-02-16T07:23:43;100519.76;;;9.31;68.88
48888;BME280;42598;53.802;-1.632;2023-02-16T07:26:10;100516.70;;;9.95;67.00
48888;BME280;42598;53.802;-1.632;2023-02-16T07:28:37;100520.67;;;9.27;68.25
48888;BME280;42598;53.802;-1.632;2023-02-16T07:31:07;100522.95;;;9.25;68.92
48888;BME280;42598;53.802;-1.632;2023-02-16T07:33:34;100525.91;;;9.86;68.93
48888;BME280;42598;53.802;-1.632;2023-02-16T07:36:02;100529.08;;;8.29;74.00
48888;BME280;42598;53.802;-1.632;2023-02-16T07:38:29;100532.69;;;8.30;73.50
48888;BME280;42598;53.802;-1.632;2023-02-16T07:40:56;100537.37;;;8.85;70.95
48888;BME280;42598;53.802;-1.632;2023-02-16T07:43:24;100546.37;;;9.60;70.02
48888;BME280;42598;53.802;-1.632;2023-02-16T07:45:51;100551.14;;;10.02;65.91
48888;BME280;42598;53.802;-1.632;2023-02-16T07:48:18;100545.52;;;10.37;64.94
48888;BME280;42598;53.802;-1.632;2023-02-16T07:50:46;100551.22;;;8.76;70.24
48888;BME280;42598;53.802;-1.632;2023-02-16T07:53:13;100554.34;;;9.52;67.45
48888;BME280;42598;53.802;-1.632;2023-02-16T07:55:42;100547.97;;;10.71;65.91
48888;BME280;42598;53.802;-1.632;2023-02-16T07:58:09;100549.70;;;10.40;65.43
48888;BME280;42598;53.802;-1.632;2023-02-16T08:00:36;100545.51;;;10.17;66.51
48888;BME280;42598;53.802;-1.632;2023-02-16T08:03:03;100540.14;;;10.19;66.44
48888;BME280;42598;53.802;-1.632;2023-02-16T08:05:33;100533.87;;;9.18;69.15
48888;BME280;42598;53.802;-1.632;2023-02-16T08:08:00;100536.16;;;9.32;68.21
48888;BME280;42598;53.802;-1.632;2023-02-16T08:10:28;100542.22;;;9.77;67.11
48888;BME280;42598;53.802;-1.632;2023-02-16T08:12:55;100535.68;;;9.84;67.37
48888;BME280;42598;53.802;-1.632;2023-02-16T08:15:22;100534.05;;;9.70;67.88
48888;BME280;42598;53.802;-1.632;2023-02-16T08:17:49;100541.69;;;9.50;70.63
48888;BME280;42598;53.802;-1.632;2023-02-16T08:20:16;100547.37;;;9.41;68.31
48888;BME280;42598;53.802;-1.632;2023-02-16T08:22:43;100554.72;;;8.94;71.70
48888;BME280;42598;53.802;-1.632;2023-02-16T08:25:10;100551.30;;;8.14;76.19
48888;BME280;42598;53.802;-1.632;2023-02-16T08:27:37;100539.77;;;8.09;80.02
48888;BME280;42598;53.802;-1.632;2023-02-16T08:30:05;100542.07;;;8.79;75.86
48888;BME280;42598;53.802;-1.632;2023-02-16T08:32:32;100546.24;;;9.87;71.11
48888;BME280;42598;53.802;-1.632;2023-02-16T08:34:59;100547.86;;;10.49;67.90
48888;BME280;42598;53.802;-1.632;2023-02-16T08:37:26;100558.74;;;10.44;68.35
48888;BME280;42598;53.802;-1.632;2023-02-16T08:39:52;100558.28;;;11.07;65.43
48888;BME280;42598;53.802;-1.632;2023-02-16T08:42:19;100557.01;;;9.40;71.00
48888;BME280;42598;53.802;-1.632;2023-02-16T08:44:46;100551.18;;;10.46;67.83
48888;BME280;42598;53.802;-1.632;2023-02-16T08:47:14;100550.62;;;11.22;67.30
48888;BME280;42598;53.802;-1.632;2023-02-16T08:49:41;100549.31;;;11.03;66.71
48888;BME280;42598;53.802;-1.632;2023-02-16T08:52:08;100544.37;;;10.67;67.67
48888;BME280;42598;53.802;-1.632;2023-02-16T08:54:35;100537.70;;;11.27;68.03
48888;BME280;42598;53.802;-1.632;2023-02-16T08:57:02;100545.35;;;9.38;73.22
48888;BME280;42598;53.802;-1.632;2023-02-16T08:59:30;100554.60;;;9.73;72.77
48888;BME280;42598;53.802;-1.632;2023-02-16T09:01:57;100555.96;;;9.77;73.40
48888;BME280;42598;53.802;-1.632;2023-02-16T09:04:25;100559.33;;;9.15;76.03
48888;BME280;42598;53.802;-1.632;2023-02-16T09:06:52;100555.84;;;9.33;75.88
48888;BME280;42598;53.802;-1.632;2023-02-16T09:09:19;100552.92;;;9.12;75.86
48888;BME280;42598;53.802;-1.632;2023-02-16T09:11:46;100557.81;;;8.03;85.38
48888;BME280;42598;53.802;-1.632;2023-02-16T09:14:17;100561.25;;;8.07;86.98
48888;BME280;42598;53.802;-1.632;2023-02-16T09:16:44;100560.94;;;8.89;82.53
48888;BME280;42598;53.802;-1.632;2023-02-16T09:19:12;100559.51;;;9.22;85.08
48888;BME280;42598;53.802;-1.632;2023-02-16T09:21:40;100559.44;;;8.93;83.21
48888;BME280;42598;53.802;-1.632;2023-02-16T09:24:08;100559.22;;;9.88;79.11
48888;BME280;42598;53.802;-1.632;2023-02-16T09:26:36;100559.43;;;9.02;83.08
48888;BME280;42598;53.802;-1.632;2023-02-16T09:29:04;100566.85;;;9.27;82.44
48888;BME280;42598;53.802;-1.632;2023-02-16T09:31:34;100575.64;;;9.53;81.46
48888;BME280;42598;53.802;-1.632;2023-02-16T09:34:03;100574.77;;;10.54;77.07
48888;BME280;42598;53.802;-1.632;2023-02-16T09:36:31;100578.81;;;9.59;79.52
48888;BME280;42598;53.802;-1.632;2023-02-16T09:38:59;100579.18;;;9.20;84.34
48888;BME280;42598;53.802;-1.632;2023-02-16T09:41:31;100577.15;;;9.18;81.77
48888;BME280;42598;53.802;-1.632;2023-02-16T09:44:07;100573.60;;;7.98;87.33
48888;BME280;42598;53.802;-1.632;2023-02-16T09:46:39;100563.22;;;8.51;89.15
48888;BME280;42598;53.802;-1.632;2023-02-16T09:49:19;100566.19;;;7.82;93.59
48888;BME280;42598;53.802;-1.632;2023-02-16T09:51:49;100577.10;;;7.78;95.43
48888;BME280;42598;53.802;-1.632;2023-02-16T09:54:32;100579.59;;;7.88;97.23
48888;BME280;42598;53.802;-1.632;2023-02-16T09:57:04;100568.82;;;8.68;92.83
48888;BME280;42598;53.802;-1.632;2023-02-16T09:59:42;100563.96;;;8.80;88.96
48888;BME280;42598;53.802;-1.632;2023-02-16T10:02:32;100564.74;;;8.59;90.84
48888;BME280;42598;53.802;-1.632;2023-02-16T10:05:12;100571.98;;;9.92;83.90
48888;BME280;42598;53.802;-1.632;2023-02-16T10:07:49;100564.80;;;10.86;81.90
48888;BME280;42598;53.802;-1.632;2023-02-16T10:10:23;100559.42;;;11.16;77.16
48888;BME280;42598;53.802;-1.632;2023-02-16T10:12:55;100559.09;;;11.16;76.44
48888;BME280;42598;53.802;-1.632;2023-02-16T10:15:27;100557.58;;;10.87;75.81
48888;BME280;42598;53.802;-1.632;2023-02-16T10:17:58;100554.47;;;10.60;77.86
48888;BME280;42598;53.802;-1.632;2023-02-16T10:20:30;100554.95;;;11.93;73.18
48888;BME280;42598;53.802;-1.632;2023-02-16T10:23:06;100552.34;;;12.17;69.80
48888;BME280;42598;53.802;-1.632;2023-02-16T10:25:42;100554.32;;;13.32;64.88
48888;BME280;42598;53.802;-1.632;2023-02-16T10:28:16;100551.04;;;13.26;64.04
48888;BME280;42598;53.802;-1.632;2023-02-16T10:30:48;100534.81;;;13.47;63.15
48888;BME280;42598;53.802;-1.632;2023-02-16T10:33:32;100535.24;;;13.69;63.20
48888;BME280;42598;53.802;-1.632;2023-02-16T10:36:13;100538.53;;;13.91;59.89
48888;BME280;42598;53.802;-1.632;2023-02-16T10:38:44;100534.57;;;13.90;59.73
48888;BME280;42598;53.802;-1.632;2023-02-16T10:41:23;100544.22;;;13.82;60.39
48888;BME280;42598;53.802;-1.632;2023-02-16T10:43:56;100551.25;;;12.84;61.87
48888;BME280;42598;53.802;-1.632;2023-02-16T10:46:31;100547.77;;;12.89;63.47
48888;BME280;42598;53.802;-1.632;2023-02-16T10:49:00;100558.56;;;12.75;64.42
48888;BME280;42598;53.802;-1.632;2023-02-16T10:51:32;100557.93;;;12.08;67.01
48888;BME280;42598;53.802;-1.632;2023-02-16T10:54:06;100552.18;;;12.32;67.03
48888;BME280;42598;53.802;-1.632;2023-02-16T10:56:44;100551.31;;;11.00;72.18
48888;BME280;42598;53.802;-1.632;2023-02-16T10:59:15;100548.44;;;12.66;67.82
48888;BME280;42598;53.802;-1.632;2023-02-16T11:01:45;100545.80;;;12.71;67.81
48888;BME280;42598;53.802;-1.632;2023-02-16T11:04:31;100544.44;;;11.95;69.23
48888;BME280;42598;53.802;-1.632;2023-02-16T11:07:04;100539.63;;;13.28;65.44
48888;BME280;42598;53.802;-1.632;2023-02-16T11:09:32;100536.81;;;14.17;62.88
48888;BME280;42598;53.802;-1.632;2023-02-16T11:11:59;100530.41;;;14.90;60.49
48888;BME280;42598;53.802;-1.632;2023-02-16T11:14:29;100529.10;;;15.52;58.08
48888;BME280;42598;53.802;-1.632;2023-02-16T11:17:06;100528.89;;;15.61;56.12
48888;BME280;42598;53.802;-1.632;2023-02-16T11:19:34;100535.16;;;15.08;59.32
48888;BME280;42598;53.802;-1.632;2023-02-16T11:22:01;100536.57;;;15.40;56.62
48888;BME280;42598;53.802;-1.632;2023-02-16T11:24:31;100541.14;;;14.51;57.43
48888;BME280;42598;53.802;-1.632;2023-02-16T11:27:01;100532.83;;;13.86;59.07
48888;BME280;42598;53.802;-1.632;2023-02-16T11:29:29;100534.11;;;13.62;61.46
48888;BME280;42598;53.802;-1.632;2023-02-16T11:31:57;100535.34;;;13.02;63.97
48888;BME280;42598;53.802;-1.632;2023-02-16T11:34:31;100557.78;;;12.66;64.46
48888;BME280;42598;53.802;-1.632;2023-02-16T11:37:02;100562.29;;;12.59;68.37
48888;BME280;42598;53.802;-1.632;2023-02-16T11:39:35;100573.76;;;12.49;69.24
48888;BME280;42598;53.802;-1.632;2023-02-16T11:42:05;100561.57;;;14.28;62.71
48888;BME280;42598;53.802;-1.632;2023-02-16T11:44:36;100564.53;;;13.41;63.84
48888;BME280;42598;53.802;-1.632;2023-02-16T11:47:06;100584.86;;;13.99;63.10
48888;BME280;42598;53.802;-1.632;2023-02-16T11:49:36;100589.87;;;13.25;64.71
48888;BME280;42598;53.802;-1.632;2023-02-16T11:52:25;100583.72;;;12.98;64.81
48888;BME280;42598;53.802;-1.632;2023-02-16T11:54:54;100569.65;;;13.24;63.78
48888;BME280;42598;53.802;-1.632;2023-02-16T11:57:24;100567.76;;;14.01;63.52
48888;BME280;42598;53.802;-1.632;2023-02-16T11:59:53;100561.80;;;14.63;59.94
48888;BME280;42598;53.802;-1.632;2023-02-16T12:02:32;100558.08;;;14.89;58.39
48888;BME280;42598;53.802;-1.632;2023-02-16T12:05:14;100571.92;;;15.20;57.90
48888;BME280;42598;53.802;-1.632;2023-02-16T12:07:53;100567.43;;;13.69;60.11
48888;BME280;42598;53.802;-1.632;2023-02-16T12:10:37;100557.11;;;13.94;61.40
48888;BME280;42598;53.802;-1.632;2023-02-16T12:13:16;100563.00;;;13.23;64.81
48888;BME280;42598;53.802;-1.632;2023-02-16T12:15:48;100556.29;;;12.54;65.37
48888;BME280;42598;53.802;-1.632;2023-02-16T12:18:28;100541.39;;;12.19;68.06
48888;BME280;42598;53.802;-1.632;2023-02-16T12:21:02;100543.08;;;12.35;67.35
48888;BME280;42598;53.802;-1.632;2023-02-16T12:23:38;100550.34;;;11.26;72.07
48888;BME280;42598;53.802;-1.632;2023-02-16T12:26:17;100552.24;;;11.32;75.13
48888;BME280;42598;53.802;-1.632;2023-02-16T12:28:54;100549.55;;;11.70;73.76
48888;BME280;42598;53.802;-1.632;2023-02-16T12:31:28;100539.28;;;10.29;79.89
48888;BME280;42598;53.802;-1.632;2023-02-16T12:34:21;100543.79;;;10.80;77.63
48888;BME280;42598;53.802;-1.632;2023-02-16T12:36:57;100535.32;;;11.50;75.68
48888;BME280;42598;53.802;-1.632;2023-02-16T12:39:33;100527.41;;;11.66;75.38
48888;BME280;42598;53.802;-1.632;2023-02-16T12:42:26;100518.16;;;11.72;75.09
48888;BME280;42598;53.802;-1.632;2023-02-16T12:45:07;100516.73;;;11.51;74.44
48888;BME280;42598;53.802;-1.632;2023-02-16T12:47:38;100525.99;;;11.33;76.21
48888;BME280;42598;53.802;-1.632;2023-02-16T12:50:14;100520.59;;;10.80;79.61
48888;BME280;42598;53.802;-1.632;2023-02-16T12:52:48;100528.60;;;10.50;81.68
48888;BME280;42598;53.802;-1.632;2023-02-16T12:55:20;100522.98;;;11.14;78.56
48888;BME280;42598;53.802;-1.632;2023-02-16T12:57:54;100526.06;;;11.39;77.30
48888;BME280;42598;53.802;-1.632;2023-02-16T13:00:28;100531.61;;;11.28;77.98
48888;BME280;42598;53.802;-1.632;2023-02-16T13:03:06;100532.31;;;11.45;77.62